Thursday, May 05, 2016
18:04 UTC
  |  Log In   |  Register Free
Airport Search:

Rwj Airpark Airport
(54T)

Rwj Airpark Airport Diagram
No Airport Diagram Available

FAA data valid effective Mar 31 2016 - May 26 2016 (unless otherwise noted).

 
 
 
 
 
 
 
 
 
 
 
 
 
 
Current Aviation Weather for 54T

Weather Summary


Current weather conditions are not available for 54T - The nearest NOAA weather station is at EFD, (18.7 nm SW from 54T)

The most recent METAR observation for 54T was updated at: 12:50 UTC
METAR for 54T is not available. Closest METAR is for KHOU 23.6 nm NE
KHOU  (23.6 nm NE)   (most recent observation was updated at 51:75 UTC)
051753Z 34010G15KT 10SM FEW250 29/08 A3002 RMK AO2 SLP169 T02890078 10289 20172 58005

KLVJ  (25.2 nm NE)   (most recent observation was updated at 51:75 UTC)
051753Z AUTO VRB05KT 10SM CLR 29/08 A3004 RMK AO2 SLP170 T02890078 10289 20167 58003

TAF for 54T is not available.
KEFD
051200Z 0512/0618 VRB06KT 9999 SKC QNH2998INS BECMG 0517/0518 33010G15KT 9999 SKC QNH2994INS BECMG 0523/0524 35006KT 9999 SKC QNH2993INS TX28/0520Z TN13/0512Z

KHOU  (23.6 nm NE)   (most recent observation was updatred at 51:73 UTC)
051730Z 0518/0618 34006KT P6SM SKC FM060600 01003KT P6SM SKC FM061600 10005KT P6SM SKC


KIAH  (29.0 nm SE)   (most recent observation was updatred at 51:73 UTC)
051730Z 0518/0624 35008KT P6SM SKC FM060500 01003KT P6SM SKC FM061600 11005KT P6SM SKC
GlobalAir.com is loading additional information.
 Current Weather at EFD
86.0 F° (30.0 C°)

Northeast winds at 5.8 mph
Pressure:
30.05 in
Humidity:
29%
Wind:
Northeast at 5.8 mph
Dew Point:
50.0 F° (10.0 C°)
Visibility:
10.00 mi
54T NOAA Radar




Find All Airport Services Find A Hotel Find A Rental Car Find A Golf Course Find A Restaurant $100 Hamburger



Airport Weather Forecast for 54T

Translated METAR for KEFD (1750 UTC)
METAR:
KEFD 051750Z 31010KT 10SM FEW250 30/09 A3004
Conditions at:
KEFD (Ellington, TX) observed 1750 UTC 05 May 2016
Temperature:
30°C (86°F)
Dewpoint:
9°C (48.2°F) [RH = 27.1]
Pressure:
30.04 inches Hg (1017.3 mb)
Winds:
from the NW (310 degrees) at 11.5 mph (10 knots: 5.1 m/s)
Visibility:
10 mile(s)
Ceiling:
at least 12,000 feet AGL
Clouds:
Few Clouds at 25,000 feet AGL
Remarks:

Translated TAF for KEFD (Ellington, TX) (1200 UTC)
TAF text:
KEFD 051200Z 0512/0618 VRB06KT 9999 SKC QNH2998INS BECMG 0517/0518 33010G15KT 9999 SKC QNH2994INS BECMG 0523/0524 35006KT 9999 SKC QNH2993INS TX28/0520Z TN13/0512Z
Forecast period:
Thursday May 05 2016 12:00 UTC - Friday May 06 2016 18:00 UTC
Forecast type:
FROM: standard forecast or significant change
Winds:
from the N (350 degrees) at 6.9 mph (6 knots: 3.1 m/s)
Visibility:
Ceiling:
at least 12,000 feet AGL
at least 12,000 feet AGL
at least 12,000 feet AGL
Clouds:
Clear Skies
Clear Skies
Clear Skies
Weather:
no significant weather observed at this time
FBO's on the Field
FBO Company Facility Photos Services Transportation Aviation Fuel Prices: Prices include tax
Catering Weather Repair Courtesy Rental Type 100LL JetA JetA+ MOGAS 8087
 
Bay Area Aviation Inc

This FBO has not yet been rated
FS:Avfuel
Last Updated: Apr-14
Login to update fuel prices
SS:
Contact Bay Area Aviation IncMore FBO Information
 
Add another FBO Facility Photos Catering Weather Repair Courtesy Rental Type 100LL JetA JetA+ MOGAS 8087
Services Transportation Aviation Fuel Prices: Prices include tax


model-print
model-print
model-print
model-print